Wellsburg, New York
Current Conditions -  °F | °C
As of 12:53 PM on Thursday 18 Dec 2014 (Local Time) from KELM Reporting Station
Overcast Overcast  
Wind Chill: 25°   Ceiling: 2000
Heat Index: 34°   Visibility: 10mi
Dew Point: 27°   Wind: 13mph
Humidity: 75%   Direction: 300°WNW
Pressure: 29.99"   Gusts: NA
Location:  42.02°N, 76.73°W
Report Text: KELM 181753Z 30011KT 10SM OVC020 01/M03 A2999 RMK AO2 SLP165 T00111028 10011 20000 56019
Loading
Personal Weather Stations






























Interactive Weather Map New forecast layout! Learn more

10-Day Weather Forecast

Advertisements
Track Severe Weather on mobile